Latest Weather Observations for Ngayawili (Elcho Island)

IDD60801

Issued at 11:05 pm CST Thursday 18 September 2014 (issued every 30 minutes, with the page automatically refreshed every 10 minutes)

About weather observations | Map of weather stations | Latest weather observations for NT | Other Formats
Station Details ID: 014517 Name: NGAYAWILI Lat: -12.00 Lon: 135.57 Height: 8.1 m
Data from the previous 72 hours. | See also: Recent months at Ngayawili (Elcho Island)
Date/Time
CST
Temp
°C
App
Temp
°C
Dew
Point
Rel
Hum
%
Delta-T
°C
Wind Press
QNH
hPa
Press
MSL
hPa
Rain
since 9 am
mm
Dir
 
Spd
km/h
Gust
km/h
Spd
kts
Gust
kts
18/11:00pm 23.6 26.5 21.7 89 1.3 ESE 9 13 5 7 1015.4 1015.3 0.0
18/10:30pm 24.1 26.8 21.4 85 1.8 ESE 9 13 5 7 1015.5 1015.4 0.0
18/10:00pm 24.6 27.0 21.5 83 2.1 ESE 11 17 6 9 1015.6 1015.5 0.0
18/09:30pm 23.9 26.7 22.3 91 1.1 E 11 19 6 10 1015.3 1015.2 0.0
18/09:00pm 23.3 26.6 21.9 92 0.9 ENE 7 9 4 5 1015.1 1015.0 0.0
18/08:30pm 24.0 27.3 21.9 88 1.4 ENE 7 9 4 5 1014.6 1014.5 0.0
18/08:00pm 24.6 27.5 21.7 84 1.9 ENE 9 13 5 7 1014.3 1014.2 0.0
18/07:30pm 25.2 27.5 21.3 79 2.6 ENE 11 13 6 7 1013.8 1013.7 0.0
18/07:00pm 26.0 28.3 21.4 76 3.1 NE 11 15 6 8 1013.3 1013.2 0.0
18/06:30pm 26.8 29.1 21.3 72 3.7 NE 11 13 6 7 1013.0 1012.9 0.0
18/06:00pm 28.3 30.2 20.6 63 5.1 NE 11 15 6 8 1012.8 1012.7 0.0
18/05:30pm 29.5 30.9 20.4 58 6.0 NE 13 19 7 10 1012.5 1012.4 0.0
18/05:00pm 30.1 30.1 19.8 54 6.8 NE 19 26 10 14 1012.3 1012.2 0.0
18/04:30pm 31.2 32.0 19.9 51 7.5 E 15 24 8 13 1012.2 1012.1 0.0
18/04:00pm 31.0 31.1 20.3 53 7.1 NNE 20 24 11 13 1012.4 1012.3 0.0
18/03:30pm 32.8 31.7 17.4 39 9.9 ESE 19 26 10 14 1012.4 1012.3 0.0
18/03:00pm 33.4 32.8 17.5 38 10.2 E 17 28 9 15 1012.6 1012.5 0.0
18/02:30pm 33.2 34.1 18.5 41 9.6 ENE 11 24 6 13 1013.0 1012.9 0.0
18/02:00pm 32.3 33.1 19.9 48 8.2 ENE 15 20 8 11 1013.5 1013.4 0.0
18/01:30pm 30.9 31.9 21.7 58 6.2 N 19 33 10 18 1014.1 1014.0 0.0
18/01:00pm 30.3 31.4 23.0 65 5.0 N 22 30 12 16 1014.5 1014.4 0.0
18/12:30pm 29.9 33.5 23.1 67 4.7 NNW 9 17 5 9 1015.0 1014.9 0.0
18/12:00pm 30.4 33.5 22.8 64 5.2 N 11 19 6 10 1015.4 1015.3 0.0
18/11:30am 29.5 31.6 24.1 72 3.7 N 20 26 11 14 1015.6 1015.5 0.0
18/11:00am 30.0 32.3 24.4 72 3.9 N 20 26 11 14 1016.0 1015.9 0.0
18/10:30am 29.7 31.3 20.8 58 5.9 NE 13 19 7 10 1016.4 1016.3 0.0
18/10:00am 28.7 30.3 22.2 68 4.4 NE 17 26 9 14 1016.6 1016.5 0.0
18/09:30am 27.6 30.9 23.8 80 2.6 E 13 24 7 13 1016.9 1016.8 0.0
18/09:00am 26.4 29.3 24.4 89 1.4 E 17 26 9 14 1016.8 1016.7 0.0
18/08:30am 24.5 28.6 24.5 100 0.0 E 11 20 6 11 1016.6 1016.5 0.0
18/08:00am 23.5 27.3 23.5 100 0.0 E 9 13 5 7 1016.1 1016.0 0.0
18/07:30am 22.5 25.8 22.5 100 0.0 E 9 13 5 7 1015.7 1015.6 0.0
18/07:00am 21.5 24.3 21.5 100 0.0 E 9 13 5 7 1015.2 1015.1 0.0
18/06:30am 20.8 23.2 20.8 100 0.0 SE 9 15 5 8 1014.7 1014.6 0.0
18/06:00am 20.7 22.7 20.7 100 0.0 SSE 11 17 6 9 1014.0 1013.9 0.0
18/05:30am 19.5 20.5 19.5 100 0.0 SSE 13 17 7 9 1013.5 1013.4 0.0
18/05:00am 19.7 21.6 19.7 100 0.0 E 9 11 5 6 1013.2 1013.1 0.0
18/04:30am 18.6 20.9 18.6 100 0.0 E 4 6 2 3 1013.0 1012.9 0.0
18/04:00am 18.5 20.8 18.5 100 0.0 E 4 7 2 4 1012.9 1012.8 0.0
18/03:30am 18.5 20.4 18.5 100 0.0 E 6 7 3 4 1013.1 1013.0 0.0
18/03:00am 18.6 20.3 18.6 100 0.0 E 7 7 4 4 1013.2 1013.1 0.0
18/02:30am 19.5 21.7 19.5 100 0.0 E 7 7 4 4 1013.5 1013.4 0.0
18/02:00am 20.8 23.6 20.8 100 0.0 E 7 7 4 4 1013.7 1013.6 0.0
18/01:30am 19.9 21.9 19.9 100 0.0 E 9 9 5 5 1014.3 1014.2 0.0
18/01:00am 20.5 23.1 20.5 100 0.0 E 7 7 4 4 1014.6 1014.5 0.0
18/12:30am 20.6 23.4 20.4 99 0.1 E 6 7 3 4 1014.8 1014.7 0.0
18/12:00am 22.2 25.6 22.0 99 0.1 E 7 9 4 5 1015.0 1014.9 0.0
 
Date/Time
CST
Temp
°C
App
Temp
°C
Dew
Point
Rel
Hum
%
Delta-T
°C
Wind Press
QNH
hPa
Press
MSL
hPa
Rain
since 9 am
mm
Dir
 
Spd
km/h
Gust
km/h
Spd
kts
Gust
kts
17/11:30pm 21.7 24.6 21.0 96 0.5 E 7 9 4 5 1015.1 1015.0 0.0
17/11:00pm 22.9 26.4 22.2 96 0.5 E 7 9 4 5 1015.3 1015.2 0.0
17/10:30pm 22.8 25.8 22.0 95 0.5 E 9 11 5 6 1015.2 1015.1 0.0
17/10:00pm 23.3 26.8 22.1 93 0.8 E 7 9 4 5 1015.4 1015.3 0.0
17/09:30pm 23.9 27.4 22.2 90 1.1 E 7 9 4 5 1015.2 1015.1 0.0
17/09:00pm 24.6 27.8 22.3 87 1.5 E 9 13 5 7 1014.9 1014.8 0.0
17/08:30pm 25.0 28.1 22.1 84 1.9 ENE 9 17 5 9 1014.7 1014.6 0.0
17/08:00pm 25.2 28.1 21.7 81 2.3 E 9 15 5 8 1014.2 1014.1 0.0
17/07:30pm 25.6 27.8 21.1 76 3.0 ENE 11 17 6 9 1013.7 1013.6 0.0
17/07:00pm 26.0 27.2 20.6 72 3.5 ENE 15 20 8 11 1013.2 1013.1 0.0
17/06:30pm 26.7 27.9 19.8 66 4.5 NE 13 20 7 11 1012.7 1012.6 0.0
17/06:00pm 27.9 29.0 19.7 61 5.3 NE 13 20 7 11 1012.2 1012.1 0.0
17/05:30pm 28.9 29.2 19.5 57 6.1 NE 17 28 9 15 1011.8 1011.7 0.0
17/05:00pm 29.4 29.4 19.7 56 6.3 NE 19 28 10 15 1011.4 1011.3 0.0
17/04:30pm 30.1 30.0 19.5 53 6.9 NE 19 33 10 18 1011.4 1011.3 0.0
17/04:00pm 30.2 29.2 19.6 53 6.9 NE 24 37 13 20 1011.3 1011.2 0.0
17/03:30pm 31.3 30.6 19.6 49 7.7 NE 22 32 12 17 1011.2 1011.1 0.0
17/03:00pm 31.5 31.9 19.8 49 7.7 ENE 17 28 9 15 1011.5 1011.4 0.0
17/02:30pm 31.7 32.7 20.3 50 7.6 E 15 22 8 12 1011.9 1011.8 0.0
17/02:00pm 31.2 31.8 20.2 52 7.3 ENE 17 26 9 14 1012.1 1012.0 0.0
17/01:30pm 31.1 31.6 20.1 52 7.3 ESE 17 26 9 14 1012.7 1012.6 0.0
17/01:00pm 30.4 30.5 20.3 54 6.7 SSE 20 26 11 14 1013.1 1013.0 0.0
17/12:30pm 31.0 31.9 20.9 55 6.7 ESE 17 28 9 15 1013.6 1013.5 0.0
17/12:00pm 30.3 31.3 21.1 58 6.1 E 17 28 9 15 1014.0 1013.9 0.0
17/11:30am 30.3 30.8 20.8 56 6.3 E 19 30 10 16 1014.4 1014.3 0.0
17/11:00am 29.7 30.0 20.5 57 6.1 ESE 19 30 10 16 1014.8 1014.7 0.0
17/10:30am 29.2 30.4 21.4 63 5.2 ENE 17 28 9 15 1015.3 1015.2 0.0
17/10:00am 27.6 29.3 23.0 76 3.1 E 19 28 10 15 1015.3 1015.2 0.0
17/09:30am 27.4 29.2 23.2 78 2.9 ENE 19 30 10 16 1015.2 1015.1 0.0
17/09:00am 26.1 28.4 23.4 85 1.8 E 17 26 9 14 1015.1 1015.0 -
17/08:30am 24.7 28.9 24.7 100 0.0 ENE 11 19 6 10 1015.0 1014.9 -
17/08:00am 23.3 27.0 23.3 100 0.0 ESE 9 13 5 7 1014.5 1014.4 -
17/07:30am 21.9 24.9 21.9 100 0.0 E 9 15 5 8 1013.9 1013.8 -
17/07:00am 21.3 23.6 21.3 100 0.0 SE 11 15 6 8 1013.1 1013.0 -
17/06:30am 21.3 24.0 21.3 100 0.0 ESE 9 15 5 8 1013.0 1012.9 -
17/06:00am 21.4 23.3 21.4 100 0.0 SE 13 15 7 8 1012.4 1012.3 -
17/05:30am 21.5 23.9 21.5 100 0.0 SE 11 15 6 8 1012.2 1012.1 -
17/05:00am 21.6 24.0 21.6 100 0.0 ESE 11 13 6 7 1011.9 1011.8 -
17/04:30am 21.5 23.5 21.5 100 0.0 SE 13 15 7 8 1011.7 1011.6 -
17/04:00am 21.7 24.2 21.7 100 0.0 ESE 11 13 6 7 1011.6 1011.5 -
17/03:30am 21.7 24.2 21.7 100 0.0 ESE 11 13 6 7 1011.5 1011.4 -
17/03:00am 21.0 23.5 21.0 100 0.0 ESE 9 11 5 6 1011.7 1011.6 0.0
17/02:30am 20.0 22.0 20.0 100 0.0 E 9 11 5 6 1012.0 1011.9 -
17/02:00am 20.3 22.8 20.3 100 0.0 E 7 9 4 5 1012.4 1012.3 -
17/01:30am 20.9 23.3 20.9 100 0.0 E 9 9 5 5 1012.4 1012.3 -
17/01:00am 21.6 24.4 21.6 100 0.0 E 9 9 5 5 1012.5 1012.4 -
17/12:30am 22.3 25.5 22.3 100 0.0 E 9 13 5 7 1012.7 1012.6 -
17/12:00am 22.6 26.2 22.3 98 0.2 E 7 11 4 6 1012.9 1012.8 -
 
Date/Time
CST
Temp
°C
App
Temp
°C
Dew
Point
Rel
Hum
%
Delta-T
°C
Wind Press
QNH
hPa
Press
MSL
hPa
Rain
since 9 am
mm
Dir
 
Spd
km/h
Gust
km/h
Spd
kts
Gust
kts
16/11:30pm 23.0 26.2 22.3 96 0.5 E 9 13 5 7 1013.2 1013.1 -
16/11:00pm 23.2 26.4 22.4 95 0.5 E 9 11 5 6 1013.5 1013.4 -
16/10:30pm 23.4 26.1 22.2 93 0.8 E 11 15 6 8 1013.5 1013.4 -
16/10:00pm 23.5 26.6 22.1 92 0.9 E 9 13 5 7 1013.4 1013.3 -
16/09:30pm 23.4 26.3 21.7 90 1.1 E 9 13 5 7 1013.2 1013.1 -
16/09:00pm 23.5 26.5 21.2 87 1.5 E 7 11 4 6 1013.2 1013.1 0.0
16/08:30pm 23.9 26.2 20.6 82 2.2 ENE 9 11 5 6 1012.9 1012.8 -
16/08:00pm 24.2 26.4 19.5 75 3.0 E 7 11 4 6 1012.7 1012.6 -
16/07:30pm 24.9 26.6 19.3 71 3.6 ENE 9 13 5 7 1012.2 1012.1 -
16/07:00pm 25.4 27.4 20.0 72 3.5 NE 9 13 5 7 1011.9 1011.8 -
16/06:30pm 26.3 27.4 19.7 67 4.3 NE 13 17 7 9 1011.5 1011.4 -
16/06:00pm 27.3 27.9 19.4 62 5.1 NE 15 24 8 13 1011.3 1011.2 -
16/05:30pm 28.1 27.7 19.3 58 5.7 NNE 20 28 11 15 1011.1 1011.0 -
16/05:00pm 28.4 27.0 19.6 59 5.7 NNE 26 35 14 19 1010.8 1010.7 -
16/04:30pm 29.3 29.6 20.7 59 5.7 NNE 20 30 11 16 1010.7 1010.6 -
16/04:00pm 29.3 28.8 20.7 59 5.7 NNE 24 35 13 19 1010.6 1010.5 -
16/03:30pm 30.1 30.6 20.9 57 6.1 NNE 19 26 10 14 1010.6 1010.5 -
16/03:00pm 31.2 32.4 21.4 56 6.6 NE 17 30 9 16 1010.9 1010.8 -
16/02:30pm 31.2 - 18.5 46 8.2 - - - - - 1011.3 1011.2 -
16/02:00pm 30.6 30.7 19.9 52 7.0 NE 19 30 10 16 1011.7 1011.6 0.0
16/01:30pm 30.1 30.9 20.6 56 6.3 NE 17 30 9 16 1012.1 1012.0 0.0
16/01:00pm 30.7 31.4 21.2 57 6.4 NE 19 26 10 14 1012.6 1012.5 0.0
16/12:30pm 30.2 31.3 21.3 59 6.0 ENE 17 30 9 16 1013.2 1013.1 0.0
16/12:00pm 28.2 29.5 22.7 72 3.7 NNE 20 30 11 16 1013.4 1013.3 0.0
16/11:30am 28.7 30.0 23.4 73 3.6 NNE 22 33 12 18 1013.5 1013.4 0.0
16/11:00am 28.9 29.4 24.0 75 3.4 N 28 35 15 19 1013.6 1013.5 0.0
16/10:30am 28.4 29.3 24.0 77 3.0 N 26 32 14 17 1013.8 1013.7 0.0
16/10:00am 28.3 29.6 24.1 78 2.9 N 24 32 13 17 1014.0 1013.9 0.0
16/09:30am 27.7 29.5 23.5 78 2.9 NNE 20 30 11 16 1013.9 1013.8 0.0
16/09:00am 27.4 29.5 23.8 81 2.5 NE 19 28 10 15 1013.9 1013.8 0.0
16/08:30am 25.9 29.2 23.8 88 1.4 NE 13 17 7 9 1013.5 1013.4 0.0
16/08:00am 24.2 28.5 24.2 100 0.0 ENE 9 13 5 7 1013.3 1013.2 0.0
16/07:30am 22.8 26.3 22.8 100 0.0 ENE 9 17 5 9 1013.0 1012.9 0.0
16/07:00am 21.9 24.5 21.9 100 0.0 ENE 11 17 6 9 1012.6 1012.5 0.0
16/06:30am 21.6 24.4 21.6 100 0.0 ESE 9 13 5 7 1012.2 1012.1 0.0
16/06:00am 21.6 24.4 21.6 100 0.0 ESE 9 11 5 6 1011.9 1011.8 0.0
16/05:30am 21.6 24.4 21.6 100 0.0 E 9 11 5 6 1011.6 1011.5 0.0
16/05:00am 21.5 24.3 21.5 100 0.0 E 9 11 5 6 1011.2 1011.1 0.0
16/04:30am 21.6 24.4 21.6 100 0.0 E 9 13 5 7 1011.1 1011.0 0.0
16/04:00am 21.8 24.7 21.8 100 0.0 E 9 11 5 6 1010.8 1010.7 0.0
16/03:30am 22.0 25.0 22.0 100 0.0 E 9 13 5 7 1011.0 1010.9 0.0
16/03:00am 22.1 25.2 22.1 100 0.0 ESE 9 15 5 8 1011.1 1011.0 0.0
16/02:30am 22.1 25.2 22.1 100 0.0 E 9 11 5 6 1011.3 1011.2 0.0
16/02:00am 22.6 25.9 22.6 100 0.0 E 9 13 5 7 1011.7 1011.6 0.0
16/01:30am 22.7 26.1 22.7 100 0.0 E 9 15 5 8 1011.9 1011.8 0.0
16/01:00am 22.7 26.1 22.7 100 0.0 E 9 13 5 7 1012.0 1011.9 0.0
16/12:30am 22.8 26.1 22.6 99 0.1 E 9 11 5 6 1012.3 1012.2 0.0
16/12:00am 23.2 27.0 22.7 97 0.3 E 7 11 4 6 1012.7 1012.6 0.0
 
Date/Time
CST
Temp
°C
App
Temp
°C
Dew
Point
Rel
Hum
%
Delta-T
°C
Wind Press
QNH
hPa
Press
MSL
hPa
Rain
since 9 am
mm
Dir
 
Spd
km/h
Gust
km/h
Spd
kts
Gust
kts
15/11:30pm 23.4 26.7 22.6 95 0.5 E 9 11 5 6 1012.8 1012.7 0.0

Other Formats:

Comma delimited format used in spreadsheet applications
http://www.bom.gov.au/fwo/IDD60801/IDD60801.95146.axf

JavaScript Object Notation format (JSON) in row-major order
http://www.bom.gov.au/fwo/IDD60801/IDD60801.95146.json